sensor_id;sensor_type;location;lat;lon;timestamp;P1;durP1;ratioP1;P2;durP2;ratioP2
495;SDS011;39559;48.630;9.162;2023-05-10T00:00:06;2.70;;;2.50;;
495;SDS011;39559;48.630;9.162;2023-05-10T00:02:32;2.60;;;2.40;;
495;SDS011;39559;48.630;9.162;2023-05-10T00:04:58;2.47;;;2.27;;
495;SDS011;39559;48.630;9.162;2023-05-10T00:07:23;3.07;;;2.70;;
495;SDS011;39559;48.630;9.162;2023-05-10T00:09:49;2.70;;;2.50;;
495;SDS011;39559;48.630;9.162;2023-05-10T00:12:14;4.40;;;2.33;;
495;SDS011;39559;48.630;9.162;2023-05-10T00:14:40;3.13;;;2.83;;
495;SDS011;39559;48.630;9.162;2023-05-10T00:17:06;3.57;;;3.33;;
495;SDS011;39559;48.630;9.162;2023-05-10T00:19:31;2.90;;;2.70;;
495;SDS011;39559;48.630;9.162;2023-05-10T00:24:02;3.70;;;2.85;;
495;SDS011;39559;48.630;9.162;2023-05-10T00:26:28;2.80;;;2.60;;
495;SDS011;39559;48.630;9.162;2023-05-10T00:28:54;2.60;;;2.40;;
495;SDS011;39559;48.630;9.162;2023-05-10T00:31:19;2.50;;;2.40;;
495;SDS011;39559;48.630;9.162;2023-05-10T00:33:45;2.10;;;2.00;;
495;SDS011;39559;48.630;9.162;2023-05-10T00:36:11;2.20;;;2.10;;
495;SDS011;39559;48.630;9.162;2023-05-10T00:38:36;1.60;;;1.50;;
495;SDS011;39559;48.630;9.162;2023-05-10T00:41:02;1.90;;;1.80;;
495;SDS011;39559;48.630;9.162;2023-05-10T00:43:28;1.90;;;1.80;;
495;SDS011;39559;48.630;9.162;2023-05-10T00:48:00;2.20;;;2.00;;
495;SDS011;39559;48.630;9.162;2023-05-10T00:50:27;1.60;;;1.50;;
495;SDS011;39559;48.630;9.162;2023-05-10T00:52:53;1.70;;;1.60;;
495;SDS011;39559;48.630;9.162;2023-05-10T00:55:19;1.75;;;1.65;;
495;SDS011;39559;48.630;9.162;2023-05-10T00:57:45;1.77;;;1.67;;
495;SDS011;39559;48.630;9.162;2023-05-10T01:00:11;1.87;;;1.77;;
495;SDS011;39559;48.630;9.162;2023-05-10T01:02:38;1.60;;;1.50;;
495;SDS011;39559;48.630;9.162;2023-05-10T01:05:03;1.33;;;1.23;;
495;SDS011;39559;48.630;9.162;2023-05-10T01:07:30;1.70;;;1.60;;
495;SDS011;39559;48.630;9.162;2023-05-10T01:11:55;2.00;;;1.85;;
495;SDS011;39559;48.630;9.162;2023-05-10T01:14:21;1.80;;;1.70;;
495;SDS011;39559;48.630;9.162;2023-05-10T01:16:48;2.23;;;1.70;;
495;SDS011;39559;48.630;9.162;2023-05-10T01:30:20;1.70;;;1.60;;
495;SDS011;39559;48.630;9.162;2023-05-10T01:35:55;1.65;;;1.55;;
495;SDS011;39559;48.630;9.162;2023-05-10T01:41:06;1.75;;;1.65;;
495;SDS011;39559;48.630;9.162;2023-05-10T01:43:44;4.40;;;2.70;;
495;SDS011;39559;48.630;9.162;2023-05-10T01:46:19;1.50;;;1.40;;
495;SDS011;39559;48.630;9.162;2023-05-10T01:48:53;3.50;;;1.58;;
495;SDS011;39559;48.630;9.162;2023-05-10T01:51:27;1.67;;;1.40;;
495;SDS011;39559;48.630;9.162;2023-05-10T01:53:59;1.80;;;1.70;;
495;SDS011;39559;48.630;9.162;2023-05-10T01:56:29;1.40;;;1.30;;
495;SDS011;39559;48.630;9.162;2023-05-10T01:59:49;1.52;;;1.42;;
495;SDS011;39559;48.630;9.162;2023-05-10T02:02:16;1.58;;;1.48;;
495;SDS011;39559;48.630;9.162;2023-05-10T02:04:47;1.77;;;1.50;;
495;SDS011;39559;48.630;9.162;2023-05-10T02:07:16;1.50;;;1.40;;
495;SDS011;39559;48.630;9.162;2023-05-10T02:09:48;3.25;;;1.50;;
495;SDS011;39559;48.630;9.162;2023-05-10T02:12:15;1.50;;;1.40;;
495;SDS011;39559;48.630;9.162;2023-05-10T02:14:42;1.50;;;1.40;;
495;SDS011;39559;48.630;9.162;2023-05-10T02:17:09;1.50;;;1.40;;
495;SDS011;39559;48.630;9.162;2023-05-10T02:19:38;1.52;;;1.42;;
495;SDS011;39559;48.630;9.162;2023-05-10T02:23:45;1.33;;;1.23;;
495;SDS011;39559;48.630;9.162;2023-05-10T02:26:11;1.60;;;1.50;;
495;SDS011;39559;48.630;9.162;2023-05-10T02:28:39;1.50;;;1.40;;
495;SDS011;39559;48.630;9.162;2023-05-10T02:31:06;1.40;;;1.30;;
495;SDS011;39559;48.630;9.162;2023-05-10T02:33:34;1.60;;;1.50;;
495;SDS011;39559;48.630;9.162;2023-05-10T02:36:01;1.60;;;1.50;;
495;SDS011;39559;48.630;9.162;2023-05-10T02:38:28;1.60;;;1.50;;
495;SDS011;39559;48.630;9.162;2023-05-10T02:40:56;1.55;;;1.45;;
495;SDS011;39559;48.630;9.162;2023-05-10T02:43:24;1.60;;;1.50;;
495;SDS011;39559;48.630;9.162;2023-05-10T02:47:41;1.48;;;1.38;;
495;SDS011;39559;48.630;9.162;2023-05-10T02:50:08;5.40;;;1.90;;
495;SDS011;39559;48.630;9.162;2023-05-10T02:52:44;1.58;;;1.48;;
495;SDS011;39559;48.630;9.162;2023-05-10T02:55:15;2.00;;;1.80;;
495;SDS011;39559;48.630;9.162;2023-05-10T02:57:57;1.48;;;1.38;;
495;SDS011;39559;48.630;9.162;2023-05-10T03:00:27;1.70;;;1.60;;
495;SDS011;39559;48.630;9.162;2023-05-10T03:02:58;1.70;;;1.60;;
495;SDS011;39559;48.630;9.162;2023-05-10T03:05:25;6.63;;;2.00;;
495;SDS011;39559;48.630;9.162;2023-05-10T03:07:51;1.80;;;1.70;;
495;SDS011;39559;48.630;9.162;2023-05-10T03:11:50;2.13;;;1.92;;
495;SDS011;39559;48.630;9.162;2023-05-10T03:17:15;1.70;;;1.60;;
495;SDS011;39559;48.630;9.162;2023-05-10T03:22:19;1.85;;;1.60;;
495;SDS011;39559;48.630;9.162;2023-05-10T03:24:51;3.80;;;1.70;;
495;SDS011;39559;48.630;9.162;2023-05-10T03:27:21;1.80;;;1.70;;
495;SDS011;39559;48.630;9.162;2023-05-10T03:29:49;2.88;;;1.80;;
495;SDS011;39559;48.630;9.162;2023-05-10T03:32:16;1.80;;;1.70;;
495;SDS011;39559;48.630;9.162;2023-05-10T03:35:35;1.80;;;1.70;;
495;SDS011;39559;48.630;9.162;2023-05-10T03:38:00;2.80;;;2.00;;
495;SDS011;39559;48.630;9.162;2023-05-10T03:40:26;2.10;;;2.00;;
495;SDS011;39559;48.630;9.162;2023-05-10T03:42:57;1.90;;;1.70;;
495;SDS011;39559;48.630;9.162;2023-05-10T03:45:26;1.98;;;1.88;;
495;SDS011;39559;48.630;9.162;2023-05-10T03:47:52;1.98;;;1.88;;
495;SDS011;39559;48.630;9.162;2023-05-10T03:50:18;2.80;;;1.90;;
495;SDS011;39559;48.630;9.162;2023-05-10T03:52:43;2.20;;;2.00;;
495;SDS011;39559;48.630;9.162;2023-05-10T03:55:09;2.10;;;1.90;;
495;SDS011;39559;48.630;9.162;2023-05-10T03:59:32;2.20;;;2.05;;
495;SDS011;39559;48.630;9.162;2023-05-10T04:01:57;2.30;;;2.20;;
495;SDS011;39559;48.630;9.162;2023-05-10T04:04:23;3.07;;;1.90;;
495;SDS011;39559;48.630;9.162;2023-05-10T04:06:49;2.27;;;2.07;;
495;SDS011;39559;48.630;9.162;2023-05-10T04:09:15;2.08;;;1.98;;
495;SDS011;39559;48.630;9.162;2023-05-10T04:11:41;2.00;;;1.90;;
495;SDS011;39559;48.630;9.162;2023-05-10T04:14:07;2.03;;;1.93;;
495;SDS011;39559;48.630;9.162;2023-05-10T04:16:32;2.70;;;2.33;;
495;SDS011;39559;48.630;9.162;2023-05-10T04:18:58;2.80;;;2.60;;
495;SDS011;39559;48.630;9.162;2023-05-10T04:23:28;2.15;;;2.05;;
495;SDS011;39559;48.630;9.162;2023-05-10T04:25:58;4.07;;;2.20;;
495;SDS011;39559;48.630;9.162;2023-05-10T04:28:25;2.55;;;2.10;;
495;SDS011;39559;48.630;9.162;2023-05-10T04:30:51;2.40;;;2.20;;
495;SDS011;39559;48.630;9.162;2023-05-10T04:33:16;3.83;;;2.00;;
495;SDS011;39559;48.630;9.162;2023-05-10T04:35:42;2.53;;;2.20;;
495;SDS011;39559;48.630;9.162;2023-05-10T04:38:07;2.23;;;2.03;;
495;SDS011;39559;48.630;9.162;2023-05-10T04:40:33;2.60;;;2.40;;
495;SDS011;39559;48.630;9.162;2023-05-10T04:42:59;2.10;;;1.90;;
495;SDS011;39559;48.630;9.162;2023-05-10T04:47:34;2.17;;;1.98;;
495;SDS011;39559;48.630;9.162;2023-05-10T04:50:00;2.53;;;2.30;;
495;SDS011;39559;48.630;9.162;2023-05-10T04:52:26;4.13;;;2.50;;
495;SDS011;39559;48.630;9.162;2023-05-10T04:54:51;1.93;;;1.83;;
495;SDS011;39559;48.630;9.162;2023-05-10T04:57:17;2.20;;;2.00;;
495;SDS011;39559;48.630;9.162;2023-05-10T04:59:43;1.87;;;1.77;;
495;SDS011;39559;48.630;9.162;2023-05-10T05:02:08;2.07;;;1.90;;
495;SDS011;39559;48.630;9.162;2023-05-10T05:04:34;2.67;;;2.37;;
495;SDS011;39559;48.630;9.162;2023-05-10T05:06:59;2.57;;;2.37;;
495;SDS011;39559;48.630;9.162;2023-05-10T05:11:23;4.00;;;2.85;;
495;SDS011;39559;48.630;9.162;2023-05-10T05:13:50;2.72;;;2.30;;
495;SDS011;39559;48.630;9.162;2023-05-10T05:16:16;1.90;;;1.80;;
495;SDS011;39559;48.630;9.162;2023-05-10T05:18:41;2.90;;;2.70;;
495;SDS011;39559;48.630;9.162;2023-05-10T05:21:13;2.50;;;2.30;;
495;SDS011;39559;48.630;9.162;2023-05-10T05:23:42;3.25;;;2.30;;
495;SDS011;39559;48.630;9.162;2023-05-10T05:26:08;2.90;;;2.40;;
495;SDS011;39559;48.630;9.162;2023-05-10T05:28:34;2.30;;;2.10;;
495;SDS011;39559;48.630;9.162;2023-05-10T05:31:02;4.05;;;2.58;;
495;SDS011;39559;48.630;9.162;2023-05-10T05:35:20;2.50;;;2.33;;
495;SDS011;39559;48.630;9.162;2023-05-10T05:37:45;2.80;;;2.43;;
495;SDS011;39559;48.630;9.162;2023-05-10T05:40:14;2.23;;;2.13;;
495;SDS011;39559;48.630;9.162;2023-05-10T05:42:40;2.50;;;2.30;;
495;SDS011;39559;48.630;9.162;2023-05-10T05:45:05;2.10;;;2.00;;
495;SDS011;39559;48.630;9.162;2023-05-10T05:47:31;2.30;;;2.10;;
495;SDS011;39559;48.630;9.162;2023-05-10T05:49:57;2.23;;;2.10;;
495;SDS011;39559;48.630;9.162;2023-05-10T05:52:22;2.30;;;2.20;;
495;SDS011;39559;48.630;9.162;2023-05-10T05:54:48;2.47;;;2.27;;
495;SDS011;39559;48.630;9.162;2023-05-10T05:59:16;2.50;;;2.30;;
495;SDS011;39559;48.630;9.162;2023-05-10T06:01:42;2.20;;;2.10;;
495;SDS011;39559;48.630;9.162;2023-05-10T06:04:07;3.63;;;2.70;;
495;SDS011;39559;48.630;9.162;2023-05-10T06:06:33;2.30;;;2.20;;
495;SDS011;39559;48.630;9.162;2023-05-10T06:08:58;3.23;;;2.53;;
495;SDS011;39559;48.630;9.162;2023-05-10T06:11:24;2.53;;;2.33;;
495;SDS011;39559;48.630;9.162;2023-05-10T06:13:51;2.50;;;2.30;;
495;SDS011;39559;48.630;9.162;2023-05-10T06:16:16;2.33;;;2.10;;
495;SDS011;39559;48.630;9.162;2023-05-10T06:18:42;2.67;;;2.20;;
495;SDS011;39559;48.630;9.162;2023-05-10T06:23:14;2.55;;;2.35;;
495;SDS011;39559;48.630;9.162;2023-05-10T06:25:39;2.33;;;2.13;;
495;SDS011;39559;48.630;9.162;2023-05-10T06:28:05;2.80;;;2.60;;
495;SDS011;39559;48.630;9.162;2023-05-10T06:30:31;2.10;;;2.00;;
495;SDS011;39559;48.630;9.162;2023-05-10T06:32:56;2.40;;;2.20;;
495;SDS011;39559;48.630;9.162;2023-05-10T06:35:22;3.00;;;2.10;;
495;SDS011;39559;48.630;9.162;2023-05-10T06:37:48;2.53;;;2.33;;
495;SDS011;39559;48.630;9.162;2023-05-10T06:40:14;2.53;;;2.30;;
495;SDS011;39559;48.630;9.162;2023-05-10T06:42:39;2.67;;;2.30;;
495;SDS011;39559;48.630;9.162;2023-05-10T06:47:11;2.10;;;2.00;;
495;SDS011;39559;48.630;9.162;2023-05-10T06:49:36;2.60;;;2.40;;
495;SDS011;39559;48.630;9.162;2023-05-10T06:52:02;2.20;;;2.00;;
495;SDS011;39559;48.630;9.162;2023-05-10T06:54:28;2.27;;;2.17;;
495;SDS011;39559;48.630;9.162;2023-05-10T06:56:53;3.53;;;2.33;;
495;SDS011;39559;48.630;9.162;2023-05-10T06:59:19;3.17;;;2.50;;
495;SDS011;39559;48.630;9.162;2023-05-10T07:01:47;2.97;;;2.40;;
495;SDS011;39559;48.630;9.162;2023-05-10T07:04:13;2.07;;;1.97;;
495;SDS011;39559;48.630;9.162;2023-05-10T07:06:39;2.30;;;2.20;;
495;SDS011;39559;48.630;9.162;2023-05-10T07:11:08;2.53;;;2.33;;
495;SDS011;39559;48.630;9.162;2023-05-10T07:13:34;2.53;;;2.33;;
495;SDS011;39559;48.630;9.162;2023-05-10T07:16:00;2.83;;;2.57;;
495;SDS011;39559;48.630;9.162;2023-05-10T07:18:27;4.35;;;2.53;;
495;SDS011;39559;48.630;9.162;2023-05-10T07:20:53;2.40;;;2.20;;
495;SDS011;39559;48.630;9.162;2023-05-10T07:23:18;2.50;;;2.30;;
495;SDS011;39559;48.630;9.162;2023-05-10T07:25:45;2.43;;;2.23;;
495;SDS011;39559;48.630;9.162;2023-05-10T07:28:11;2.83;;;2.50;;
495;SDS011;39559;48.630;9.162;2023-05-10T07:30:37;2.78;;;2.50;;
495;SDS011;39559;48.630;9.162;2023-05-10T07:35:06;3.00;;;2.40;;
495;SDS011;39559;48.630;9.162;2023-05-10T07:37:31;2.30;;;2.10;;
495;SDS011;39559;48.630;9.162;2023-05-10T07:39:57;3.30;;;2.40;;
495;SDS011;39559;48.630;9.162;2023-05-10T07:42:23;2.27;;;2.10;;
495;SDS011;39559;48.630;9.162;2023-05-10T07:44:48;2.27;;;2.07;;
495;SDS011;39559;48.630;9.162;2023-05-10T07:47:14;2.23;;;2.03;;
495;SDS011;39559;48.630;9.162;2023-05-10T07:49:41;2.28;;;2.08;;
495;SDS011;39559;48.630;9.162;2023-05-10T07:52:07;2.38;;;2.05;;
495;SDS011;39559;48.630;9.162;2023-05-10T07:54:32;2.47;;;2.17;;
495;SDS011;39559;48.630;9.162;2023-05-10T07:59:02;2.00;;;1.88;;
495;SDS011;39559;48.630;9.162;2023-05-10T08:01:31;1.90;;;1.80;;
495;SDS011;39559;48.630;9.162;2023-05-10T08:03:58;2.13;;;1.92;;
495;SDS011;39559;48.630;9.162;2023-05-10T08:06:23;2.03;;;1.83;;
495;SDS011;39559;48.630;9.162;2023-05-10T08:08:51;2.20;;;2.00;;
495;SDS011;39559;48.630;9.162;2023-05-10T08:11:19;2.00;;;1.90;;
495;SDS011;39559;48.630;9.162;2023-05-10T08:13:48;2.80;;;2.17;;
495;SDS011;39559;48.630;9.162;2023-05-10T08:16:15;1.70;;;1.60;;
495;SDS011;39559;48.630;9.162;2023-05-10T08:18:43;2.10;;;1.90;;
495;SDS011;39559;48.630;9.162;2023-05-10T08:22:59;1.95;;;1.83;;
495;SDS011;39559;48.630;9.162;2023-05-10T08:25:24;2.70;;;2.10;;
495;SDS011;39559;48.630;9.162;2023-05-10T08:27:51;1.95;;;1.83;;
495;SDS011;39559;48.630;9.162;2023-05-10T08:30:16;1.87;;;1.77;;
495;SDS011;39559;48.630;9.162;2023-05-10T08:32:42;1.92;;;1.83;;
495;SDS011;39559;48.630;9.162;2023-05-10T08:35:08;2.00;;;1.80;;
495;SDS011;39559;48.630;9.162;2023-05-10T08:37:33;1.93;;;1.83;;
495;SDS011;39559;48.630;9.162;2023-05-10T08:39:59;1.93;;;1.80;;
495;SDS011;39559;48.630;9.162;2023-05-10T08:42:25;2.40;;;2.20;;
495;SDS011;39559;48.630;9.162;2023-05-10T08:46:59;2.22;;;1.80;;
495;SDS011;39559;48.630;9.162;2023-05-10T08:49:31;1.88;;;1.75;;
495;SDS011;39559;48.630;9.162;2023-05-10T08:52:04;1.85;;;1.75;;
495;SDS011;39559;48.630;9.162;2023-05-10T08:54:32;2.08;;;1.88;;
495;SDS011;39559;48.630;9.162;2023-05-10T08:56:58;2.00;;;1.90;;
495;SDS011;39559;48.630;9.162;2023-05-10T08:59:24;2.13;;;2.03;;
495;SDS011;39559;48.630;9.162;2023-05-10T09:01:50;1.80;;;1.70;;
495;SDS011;39559;48.630;9.162;2023-05-10T09:04:19;1.60;;;1.50;;
495;SDS011;39559;48.630;9.162;2023-05-10T09:06:45;1.80;;;1.70;;
495;SDS011;39559;48.630;9.162;2023-05-10T09:10:52;1.80;;;1.70;;
495;SDS011;39559;48.630;9.162;2023-05-10T09:13:26;1.80;;;1.70;;
495;SDS011;39559;48.630;9.162;2023-05-10T09:15:52;2.65;;;1.90;;
495;SDS011;39559;48.630;9.162;2023-05-10T09:18:18;1.60;;;1.50;;
495;SDS011;39559;48.630;9.162;2023-05-10T09:20:44;1.50;;;1.40;;
495;SDS011;39559;48.630;9.162;2023-05-10T09:23:10;1.80;;;1.70;;
495;SDS011;39559;48.630;9.162;2023-05-10T09:25:35;1.70;;;1.60;;
495;SDS011;39559;48.630;9.162;2023-05-10T09:28:05;1.60;;;1.50;;
495;SDS011;39559;48.630;9.162;2023-05-10T09:30:34;1.90;;;1.80;;
495;SDS011;39559;48.630;9.162;2023-05-10T09:34:49;1.80;;;1.70;;
495;SDS011;39559;48.630;9.162;2023-05-10T09:37:15;2.50;;;1.53;;
495;SDS011;39559;48.630;9.162;2023-05-10T09:39:40;3.30;;;2.23;;
495;SDS011;39559;48.630;9.162;2023-05-10T09:42:07;2.40;;;1.63;;
495;SDS011;39559;48.630;9.162;2023-05-10T09:44:35;1.90;;;1.80;;
495;SDS011;39559;48.630;9.162;2023-05-10T09:47:01;2.30;;;1.88;;
495;SDS011;39559;48.630;9.162;2023-05-10T09:49:27;1.45;;;1.35;;
495;SDS011;39559;48.630;9.162;2023-05-10T09:52:06;2.20;;;1.70;;
495;SDS011;39559;48.630;9.162;2023-05-10T09:54:33;1.80;;;1.70;;
495;SDS011;39559;48.630;9.162;2023-05-10T09:58:46;1.70;;;1.60;;
495;SDS011;39559;48.630;9.162;2023-05-10T10:01:28;1.85;;;1.75;;
495;SDS011;39559;48.630;9.162;2023-05-10T10:03:54;1.40;;;1.30;;
495;SDS011;39559;48.630;9.162;2023-05-10T10:06:22;1.70;;;1.40;;
495;SDS011;39559;48.630;9.162;2023-05-10T10:08:49;1.50;;;1.40;;
495;SDS011;39559;48.630;9.162;2023-05-10T10:11:16;1.88;;;1.77;;
495;SDS011;39559;48.630;9.162;2023-05-10T10:13:41;1.80;;;1.70;;
495;SDS011;39559;48.630;9.162;2023-05-10T10:16:08;1.75;;;1.65;;
495;SDS011;39559;48.630;9.162;2023-05-10T10:18:34;1.92;;;1.80;;
495;SDS011;39559;48.630;9.162;2023-05-10T10:22:50;1.58;;;1.48;;
495;SDS011;39559;48.630;9.162;2023-05-10T10:25:16;5.10;;;1.65;;
495;SDS011;39559;48.630;9.162;2023-05-10T10:35:31;1.57;;;1.47;;
495;SDS011;39559;48.630;9.162;2023-05-10T10:37:57;1.60;;;1.50;;
495;SDS011;39559;48.630;9.162;2023-05-10T10:40:27;1.57;;;1.47;;
495;SDS011;39559;48.630;9.162;2023-05-10T10:42:53;2.33;;;1.50;;
495;SDS011;39559;48.630;9.162;2023-05-10T10:47:00;1.70;;;1.60;;
495;SDS011;39559;48.630;9.162;2023-05-10T11:02:50;2.10;;;1.90;;
495;SDS011;39559;48.630;9.162;2023-05-10T11:10:36;1.85;;;1.75;;
495;SDS011;39559;48.630;9.162;2023-05-10T11:15:34;2.63;;;1.90;;
495;SDS011;39559;48.630;9.162;2023-05-10T11:18:17;1.80;;;1.70;;
495;SDS011;39559;48.630;9.162;2023-05-10T11:20:58;2.03;;;1.83;;
495;SDS011;39559;48.630;9.162;2023-05-10T11:23:31;2.30;;;2.10;;
495;SDS011;39559;48.630;9.162;2023-05-10T11:25:58;1.95;;;1.73;;
495;SDS011;39559;48.630;9.162;2023-05-10T11:28:25;2.85;;;2.00;;
495;SDS011;39559;48.630;9.162;2023-05-10T11:30:52;3.60;;;1.90;;
495;SDS011;39559;48.630;9.162;2023-05-10T11:34:36;2.40;;;2.20;;
495;SDS011;39559;48.630;9.162;2023-05-10T11:37:02;2.63;;;1.90;;
495;SDS011;39559;48.630;9.162;2023-05-10T11:39:28;2.53;;;2.17;;
495;SDS011;39559;48.630;9.162;2023-05-10T11:41:56;2.30;;;2.10;;
495;SDS011;39559;48.630;9.162;2023-05-10T11:44:24;2.20;;;2.00;;
495;SDS011;39559;48.630;9.162;2023-05-10T11:46:54;1.90;;;1.80;;
495;SDS011;39559;48.630;9.162;2023-05-10T11:49:24;3.20;;;2.10;;
495;SDS011;39559;48.630;9.162;2023-05-10T11:52:06;1.70;;;1.60;;
495;SDS011;39559;48.630;9.162;2023-05-10T11:54:32;2.10;;;2.00;;
495;SDS011;39559;48.630;9.162;2023-05-10T11:58:28;2.03;;;1.90;;
495;SDS011;39559;48.630;9.162;2023-05-10T12:00:53;2.17;;;1.97;;
495;SDS011;39559;48.630;9.162;2023-05-10T12:03:29;2.28;;;2.13;;
495;SDS011;39559;48.630;9.162;2023-05-10T12:05:55;2.20;;;2.00;;
495;SDS011;39559;48.630;9.162;2023-05-10T12:08:22;1.90;;;1.80;;
495;SDS011;39559;48.630;9.162;2023-05-10T12:11:04;2.20;;;2.00;;
495;SDS011;39559;48.630;9.162;2023-05-10T12:13:31;2.00;;;1.80;;
495;SDS011;39559;48.630;9.162;2023-05-10T12:15:59;1.70;;;1.60;;
495;SDS011;39559;48.630;9.162;2023-05-10T12:18:25;1.92;;;1.83;;
495;SDS011;39559;48.630;9.162;2023-05-10T12:22:25;2.08;;;1.88;;
495;SDS011;39559;48.630;9.162;2023-05-10T12:24:51;4.87;;;2.23;;
495;SDS011;39559;48.630;9.162;2023-05-10T12:27:16;2.40;;;2.20;;
495;SDS011;39559;48.630;9.162;2023-05-10T12:29:42;2.00;;;1.90;;
495;SDS011;39559;48.630;9.162;2023-05-10T12:32:11;2.63;;;2.10;;
495;SDS011;39559;48.630;9.162;2023-05-10T12:34:36;2.40;;;2.20;;
495;SDS011;39559;48.630;9.162;2023-05-10T12:37:08;2.00;;;1.83;;
495;SDS011;39559;48.630;9.162;2023-05-10T12:39:43;2.20;;;2.10;;
495;SDS011;39559;48.630;9.162;2023-05-10T12:42:11;2.05;;;1.90;;
495;SDS011;39559;48.630;9.162;2023-05-10T12:46:30;2.47;;;2.28;;
495;SDS011;39559;48.630;9.162;2023-05-10T12:48:56;1.95;;;1.85;;
495;SDS011;39559;48.630;9.162;2023-05-10T12:51:21;2.10;;;2.00;;
495;SDS011;39559;48.630;9.162;2023-05-10T12:53:47;2.20;;;2.10;;
495;SDS011;39559;48.630;9.162;2023-05-10T12:56:13;3.93;;;2.13;;
495;SDS011;39559;48.630;9.162;2023-05-10T12:58:39;3.23;;;2.40;;
495;SDS011;39559;48.630;9.162;2023-05-10T13:01:05;2.43;;;2.20;;
495;SDS011;39559;48.630;9.162;2023-05-10T13:03:30;2.53;;;2.10;;
495;SDS011;39559;48.630;9.162;2023-05-10T13:05:56;2.30;;;2.10;;
495;SDS011;39559;48.630;9.162;2023-05-10T13:10:18;4.05;;;2.10;;
495;SDS011;39559;48.630;9.162;2023-05-10T13:12:43;1.83;;;1.73;;
495;SDS011;39559;48.630;9.162;2023-05-10T13:15:09;2.30;;;1.93;;
495;SDS011;39559;48.630;9.162;2023-05-10T13:17:34;2.40;;;2.20;;
495;SDS011;39559;48.630;9.162;2023-05-10T13:20:00;2.10;;;2.00;;
495;SDS011;39559;48.630;9.162;2023-05-10T13:22:26;2.97;;;2.77;;
495;SDS011;39559;48.630;9.162;2023-05-10T13:24:51;2.30;;;2.10;;
495;SDS011;39559;48.630;9.162;2023-05-10T13:27:17;5.10;;;2.40;;
495;SDS011;39559;48.630;9.162;2023-05-10T13:29:42;2.37;;;2.17;;
495;SDS011;39559;48.630;9.162;2023-05-10T13:34:14;2.20;;;2.00;;
495;SDS011;39559;48.630;9.162;2023-05-10T13:36:40;2.30;;;2.10;;
495;SDS011;39559;48.630;9.162;2023-05-10T13:39:05;2.73;;;1.93;;
495;SDS011;39559;48.630;9.162;2023-05-10T13:41:31;2.37;;;1.90;;
495;SDS011;39559;48.630;9.162;2023-05-10T13:43:56;3.13;;;2.17;;
495;SDS011;39559;48.630;9.162;2023-05-10T13:46:22;4.67;;;2.33;;
495;SDS011;39559;48.630;9.162;2023-05-10T13:48:48;2.53;;;2.10;;
495;SDS011;39559;48.630;9.162;2023-05-10T13:51:13;2.13;;;1.93;;
495;SDS011;39559;48.630;9.162;2023-05-10T13:53:39;2.83;;;2.30;;
495;SDS011;39559;48.630;9.162;2023-05-10T13:58:12;1.90;;;1.80;;
495;SDS011;39559;48.630;9.162;2023-05-10T14:00:38;6.17;;;2.20;;
495;SDS011;39559;48.630;9.162;2023-05-10T14:03:04;2.60;;;2.20;;
495;SDS011;39559;48.630;9.162;2023-05-10T14:05:30;2.30;;;2.10;;
495;SDS011;39559;48.630;9.162;2023-05-10T14:07:56;2.33;;;2.10;;
495;SDS011;39559;48.630;9.162;2023-05-10T14:10:22;2.55;;;2.17;;
495;SDS011;39559;48.630;9.162;2023-05-10T14:12:47;2.30;;;2.10;;
495;SDS011;39559;48.630;9.162;2023-05-10T14:15:13;2.30;;;2.03;;
495;SDS011;39559;48.630;9.162;2023-05-10T14:17:39;6.07;;;2.27;;
495;SDS011;39559;48.630;9.162;2023-05-10T14:22:07;2.28;;;2.08;;
495;SDS011;39559;48.630;9.162;2023-05-10T14:24:32;2.27;;;2.07;;
495;SDS011;39559;48.630;9.162;2023-05-10T14:26:58;2.23;;;2.03;;
495;SDS011;39559;48.630;9.162;2023-05-10T14:29:23;2.30;;;2.10;;
495;SDS011;39559;48.630;9.162;2023-05-10T14:31:49;2.00;;;1.90;;
495;SDS011;39559;48.630;9.162;2023-05-10T14:34:15;3.43;;;2.43;;
495;SDS011;39559;48.630;9.162;2023-05-10T14:36:41;2.23;;;2.03;;
495;SDS011;39559;48.630;9.162;2023-05-10T14:39:06;2.10;;;1.90;;
495;SDS011;39559;48.630;9.162;2023-05-10T14:41:33;2.28;;;2.08;;
495;SDS011;39559;48.630;9.162;2023-05-10T14:46:03;2.40;;;2.20;;
495;SDS011;39559;48.630;9.162;2023-05-10T14:48:28;3.80;;;2.27;;
495;SDS011;39559;48.630;9.162;2023-05-10T14:50:54;2.10;;;1.90;;
495;SDS011;39559;48.630;9.162;2023-05-10T14:53:19;2.23;;;2.03;;
495;SDS011;39559;48.630;9.162;2023-05-10T14:55:45;2.50;;;2.20;;
495;SDS011;39559;48.630;9.162;2023-05-10T14:58:11;2.23;;;2.10;;
495;SDS011;39559;48.630;9.162;2023-05-10T15:00:36;2.20;;;2.00;;
495;SDS011;39559;48.630;9.162;2023-05-10T15:03:02;2.40;;;2.20;;
495;SDS011;39559;48.630;9.162;2023-05-10T15:05:28;3.55;;;2.30;;
495;SDS011;39559;48.630;9.162;2023-05-10T15:10:00;2.40;;;2.20;;
495;SDS011;39559;48.630;9.162;2023-05-10T15:12:26;2.73;;;2.10;;
495;SDS011;39559;48.630;9.162;2023-05-10T15:14:51;2.20;;;2.00;;
495;SDS011;39559;48.630;9.162;2023-05-10T15:17:17;2.20;;;2.10;;
495;SDS011;39559;48.630;9.162;2023-05-10T15:19:42;2.20;;;2.00;;
495;SDS011;39559;48.630;9.162;2023-05-10T15:22:08;2.20;;;2.10;;
495;SDS011;39559;48.630;9.162;2023-05-10T15:24:34;2.30;;;2.10;;
495;SDS011;39559;48.630;9.162;2023-05-10T15:26:59;2.20;;;2.00;;
495;SDS011;39559;48.630;9.162;2023-05-10T15:29:25;3.88;;;2.03;;
495;SDS011;39559;48.630;9.162;2023-05-10T15:33:58;1.95;;;1.85;;
495;SDS011;39559;48.630;9.162;2023-05-10T15:36:24;2.47;;;2.28;;
495;SDS011;39559;48.630;9.162;2023-05-10T15:38:50;2.57;;;2.17;;
495;SDS011;39559;48.630;9.162;2023-05-10T15:41:15;5.17;;;2.30;;
495;SDS011;39559;48.630;9.162;2023-05-10T15:43:41;2.53;;;2.07;;
495;SDS011;39559;48.630;9.162;2023-05-10T15:46:09;1.90;;;1.80;;
495;SDS011;39559;48.630;9.162;2023-05-10T15:48:35;2.40;;;1.90;;
495;SDS011;39559;48.630;9.162;2023-05-10T15:51:00;3.10;;;1.93;;
495;SDS011;39559;48.630;9.162;2023-05-10T15:53:26;1.90;;;1.80;;
495;SDS011;39559;48.630;9.162;2023-05-10T15:57:51;2.20;;;2.00;;
495;SDS011;39559;48.630;9.162;2023-05-10T16:00:17;2.00;;;1.80;;
495;SDS011;39559;48.630;9.162;2023-05-10T16:02:43;2.20;;;2.00;;
495;SDS011;39559;48.630;9.162;2023-05-10T16:05:09;6.43;;;1.80;;
495;SDS011;39559;48.630;9.162;2023-05-10T16:07:35;2.05;;;1.85;;
495;SDS011;39559;48.630;9.162;2023-05-10T16:10:00;1.93;;;1.80;;
495;SDS011;39559;48.630;9.162;2023-05-10T16:12:29;2.50;;;2.10;;
495;SDS011;39559;48.630;9.162;2023-05-10T16:14:55;2.88;;;2.00;;
495;SDS011;39559;48.630;9.162;2023-05-10T16:17:21;4.17;;;2.63;;
495;SDS011;39559;48.630;9.162;2023-05-10T16:21:47;2.00;;;1.60;;
495;SDS011;39559;48.630;9.162;2023-05-10T16:24:14;1.98;;;1.88;;
495;SDS011;39559;48.630;9.162;2023-05-10T16:26:39;2.10;;;1.90;;
495;SDS011;39559;48.630;9.162;2023-05-10T16:29:06;1.87;;;1.77;;
495;SDS011;39559;48.630;9.162;2023-05-10T16:31:32;1.90;;;1.80;;
495;SDS011;39559;48.630;9.162;2023-05-10T16:33:58;2.10;;;1.93;;
495;SDS011;39559;48.630;9.162;2023-05-10T16:36:23;2.27;;;1.90;;
495;SDS011;39559;48.630;9.162;2023-05-10T16:38:49;2.10;;;1.90;;
495;SDS011;39559;48.630;9.162;2023-05-10T16:41:15;2.27;;;2.00;;
495;SDS011;39559;48.630;9.162;2023-05-10T16:45:52;2.20;;;2.00;;
495;SDS011;39559;48.630;9.162;2023-05-10T16:48:18;2.00;;;1.87;;
495;SDS011;39559;48.630;9.162;2023-05-10T16:50:43;2.10;;;1.90;;
495;SDS011;39559;48.630;9.162;2023-05-10T16:53:09;2.23;;;2.13;;
495;SDS011;39559;48.630;9.162;2023-05-10T16:55:36;1.98;;;1.83;;
495;SDS011;39559;48.630;9.162;2023-05-10T16:58:01;2.07;;;1.97;;
495;SDS011;39559;48.630;9.162;2023-05-10T17:00:27;1.80;;;1.70;;
495;SDS011;39559;48.630;9.162;2023-05-10T17:02:53;2.63;;;2.20;;
495;SDS011;39559;48.630;9.162;2023-05-10T17:05:19;2.20;;;2.00;;
495;SDS011;39559;48.630;9.162;2023-05-10T17:09:40;2.70;;;2.50;;
495;SDS011;39559;48.630;9.162;2023-05-10T17:12:08;2.60;;;2.40;;
495;SDS011;39559;48.630;9.162;2023-05-10T17:14:34;2.00;;;1.90;;
495;SDS011;39559;48.630;9.162;2023-05-10T17:17:07;2.30;;;2.10;;
495;SDS011;39559;48.630;9.162;2023-05-10T17:19:33;4.17;;;2.40;;